Eugene, OR (97401)

12:06 AM PDT on April 27, 2017 (GMT -0700)
Original Cal Young | | Change Station

Elev 423 ft 44.08 °N, 123.08 °W | Updated 34 seconds ago

Mostly Cloudy
Mostly Cloudy
42.3 °F
Feels Like 42 °F
N
0.0
Wind Variable Wind from NNE
Gusts 0.0 mph

Today
High -- | Low -- °F
--% Chance of Precip.
Yesterday
High -- | Low -- °F
Precip. -- in
Pressure 30.17 in
Visibility 10.0 miles
Clouds Mostly Cloudy 5000 ft
Windchill 42 °F
Dew Point 40 °F
Humidity 93%
Rainfall 0.00 in
Snow Depth Not available.
6:09 AM 8:11 PM
New Moon, 1% visible
METAR KEUG 270654Z AUTO 25007KT 10SM BKN050 08/07 A3016 RMK AO2 SLP214 T00780067
Pressure 30.17 in
Visibility 10.0 miles
Clouds Mostly Cloudy 5000 ft
Windchill 42 °F
Dew Point 40 °F
Humidity 93%
Rainfall 0.00 in
Snow Depth Not available.
6:09 AM 8:11 PM
New Moon, 1% visible
METAR KEUG 270654Z AUTO 25007KT 10SM BKN050 08/07 A3016 RMK AO2 SLP214 T00780067

Get Severe Weather Alerts

Thanks for signing up!

Be on the lookout for a verification email in your inbox.

You'll start receiving the daily forecast at 8 AM.

×

10-Day Weather Forecast

Almanac

Astronomy

Apr. 27, 2017 Rise Set
Actual Time
Civil Twilight
Nautical Twilight
Astronomical Twilight
Moon
Length of Visible Light
Length of Day
Tomorrow will be .
, % of the Moon is Illuminated

Today's Extremes

State Highs State Lows

Community

WunderPhotos

WunderBlog® & News

Nearby

Air Quality

  Air Quality AQ Index Pollutant
Not available.

Snow Depth

Station Depth Elevation

Earthquake Activity

City Distance Mag. Time & Date
Minimum magnitude displayed is 2.5.

Coastal Water Temperatures

Place Temperature

Stations

Nearby Weather Stations

Station Location Temp. Windchill Dew Point Humidity Wind Precip. Elev Updated Type
                   

Watches & Warnings

There are currently no watches in effect.